createdAt,value
2023-04-19T00:00:23.108Z,49.00
2023-04-19T00:02:51.592Z,49.08
2023-04-19T00:05:22.357Z,48.92
2023-04-19T00:07:50.990Z,49.10
2023-04-19T00:10:19.507Z,49.10
2023-04-19T00:12:49.258Z,49.29
2023-04-19T00:15:17.667Z,49.59
2023-04-19T00:17:46.231Z,49.43
2023-04-19T00:20:15.245Z,49.38
2023-04-19T00:22:43.601Z,49.48
2023-04-19T00:25:11.986Z,49.45
2023-04-19T00:27:40.415Z,49.32
2023-04-19T00:30:11.724Z,49.62
2023-04-19T00:32:40.182Z,49.61
2023-04-19T00:35:09.369Z,49.80
2023-04-19T00:37:37.782Z,49.75
2023-04-19T00:40:08.046Z,49.82
2023-04-19T00:42:37.175Z,49.98
2023-04-19T00:45:07.269Z,50.15
2023-04-19T00:47:37.829Z,50.10
2023-04-19T00:50:07.998Z,50.02
2023-04-19T00:52:36.704Z,50.15
2023-04-19T00:55:08.149Z,49.97
2023-04-19T00:57:37.634Z,50.03
2023-04-19T01:00:09.844Z,49.97
2023-04-19T01:02:39.689Z,50.00
2023-04-19T01:05:09.611Z,50.00
2023-04-19T01:07:38.025Z,49.98
2023-04-19T01:10:07.555Z,50.01
2023-04-19T01:12:36.136Z,50.08
2023-04-19T01:15:05.270Z,49.85
2023-04-19T01:17:34.386Z,49.99
2023-04-19T01:20:08.199Z,50.27
2023-04-19T01:22:38.670Z,50.09
2023-04-19T01:25:08.841Z,50.15
2023-04-19T01:27:37.206Z,50.22
2023-04-19T01:30:07.233Z,50.24
2023-04-19T01:32:35.747Z,50.36
2023-04-19T01:35:04.311Z,50.22
2023-04-19T01:37:32.673Z,50.22
2023-04-19T01:40:02.400Z,50.35
2023-04-19T01:42:30.684Z,50.40
2023-04-19T01:44:59.070Z,50.69
2023-04-19T01:47:27.543Z,50.85
2023-04-19T01:49:56.411Z,50.86
2023-04-19T01:52:24.854Z,50.90
2023-04-19T01:54:53.237Z,50.94
2023-04-19T01:57:23.052Z,50.71
2023-04-19T01:59:51.584Z,50.88
2023-04-19T02:02:20.149Z,50.64
2023-04-19T02:04:48.685Z,50.53
2023-04-19T02:07:17.132Z,50.55
2023-04-19T02:09:45.618Z,50.49
2023-04-19T02:12:14.128Z,50.35
2023-04-19T02:14:43.852Z,50.32
2023-04-19T02:17:12.346Z,50.45
2023-04-19T02:19:40.710Z,50.17
2023-04-19T02:22:09.018Z,50.19
2023-04-19T02:24:37.349Z,50.11
2023-04-19T02:27:05.997Z,50.06
2023-04-19T02:29:34.429Z,50.12
2023-04-19T02:32:06.185Z,50.16
2023-04-19T02:34:35.452Z,49.98
2023-04-19T02:37:04.343Z,49.64
2023-04-19T02:39:34.373Z,49.42
2023-04-19T02:42:02.723Z,49.73
2023-04-19T02:44:31.313Z,49.58
2023-04-19T02:46:59.672Z,49.62
2023-04-19T02:49:33.169Z,49.44
2023-04-19T02:52:01.568Z,49.33
2023-04-19T02:54:30.028Z,49.24
2023-04-19T02:56:58.455Z,49.05
2023-04-19T02:59:26.875Z,49.17
2023-04-19T03:01:55.282Z,49.31
2023-04-19T03:04:23.791Z,49.04
2023-04-19T03:06:54.424Z,49.13
2023-04-19T03:09:22.731Z,49.29
2023-04-19T03:11:51.327Z,49.15
2023-04-19T03:14:19.729Z,49.13
2023-04-19T03:16:48.130Z,49.15
2023-04-19T03:19:16.456Z,49.20
2023-04-19T03:21:44.744Z,49.24
2023-04-19T03:24:14.962Z,49.20
2023-04-19T03:26:43.617Z,49.48
2023-04-19T03:29:12.015Z,49.59
2023-04-19T03:31:40.548Z,49.70
2023-04-19T03:34:08.985Z,49.70
2023-04-19T03:36:37.394Z,49.68
2023-04-19T03:39:05.929Z,49.68
2023-04-19T03:41:35.713Z,50.04
2023-04-19T03:44:04.184Z,50.12
2023-04-19T03:46:32.580Z,50.24
2023-04-19T03:49:00.914Z,50.62
2023-04-19T03:51:29.399Z,50.58
2023-04-19T03:53:57.742Z,50.73
2023-04-19T03:56:26.145Z,50.94
2023-04-19T03:58:55.881Z,50.90
2023-04-19T04:01:25.716Z,51.06
2023-04-19T04:03:54.317Z,51.38
2023-04-19T04:06:22.811Z,51.51
2023-04-19T04:08:51.193Z,51.57
2023-04-19T04:11:19.607Z,51.59
2023-04-19T04:13:49.596Z,51.63
2023-04-19T04:16:19.343Z,51.56
2023-04-19T04:18:47.648Z,51.65
2023-04-19T04:21:16.026Z,51.76
2023-04-19T04:23:45.617Z,51.74
2023-04-19T04:26:14.093Z,51.70
2023-04-19T04:28:42.586Z,51.60
2023-04-19T04:31:13.013Z,51.72
2023-04-19T04:33:42.909Z,51.69
2023-04-19T04:36:12.051Z,51.63
2023-04-19T04:38:40.950Z,51.59
2023-04-19T04:41:09.296Z,51.58
2023-04-19T04:43:38.362Z,51.53
2023-04-19T04:46:07.129Z,51.52
2023-04-19T04:48:35.658Z,51.52
2023-04-19T04:51:05.507Z,51.46
2023-04-19T04:53:33.848Z,51.80
2023-04-19T04:56:02.144Z,51.62
2023-04-19T04:58:30.453Z,51.69
2023-04-19T05:00:58.955Z,51.70
2023-04-19T05:03:28.020Z,51.81
2023-04-19T05:05:56.841Z,51.60
2023-04-19T05:08:27.981Z,51.68
2023-04-19T05:10:56.371Z,51.88
2023-04-19T05:13:24.728Z,51.73
2023-04-19T05:15:53.091Z,51.78
2023-04-19T05:18:21.419Z,51.74
2023-04-19T05:20:49.785Z,51.69
2023-04-19T05:23:18.653Z,51.69
2023-04-19T05:25:48.335Z,51.56
2023-04-19T05:28:16.822Z,51.77
2023-04-19T05:30:45.351Z,51.75
2023-04-19T05:33:13.711Z,51.88
2023-04-19T05:35:42.077Z,52.07
2023-04-19T05:38:10.415Z,52.08
2023-04-19T05:40:40.096Z,52.28
2023-04-19T05:43:09.956Z,52.13
2023-04-19T05:45:38.544Z,52.30
2023-04-19T05:48:07.947Z,52.29
2023-04-19T05:50:37.543Z,52.27
2023-04-19T05:53:05.914Z,52.24
2023-04-19T05:55:34.324Z,52.77
2023-04-19T05:58:02.681Z,52.70
2023-04-19T06:00:32.613Z,52.84
2023-04-19T06:03:01.192Z,53.06
2023-04-19T06:05:29.689Z,53.13
2023-04-19T06:08:02.802Z,53.33
2023-04-19T06:10:44.495Z,53.06
2023-04-19T06:13:20.076Z,53.06
2023-04-19T06:15:50.221Z,52.96
2023-04-19T06:18:19.925Z,53.06
2023-04-19T06:20:49.092Z,52.75
2023-04-19T06:23:18.746Z,52.83
2023-04-19T06:25:48.862Z,52.84
2023-04-19T06:28:17.582Z,52.77
2023-04-19T06:30:46.011Z,52.69
2023-04-19T06:33:15.705Z,52.44
2023-04-19T06:35:44.049Z,52.40
2023-04-19T06:38:12.423Z,52.28
2023-04-19T06:40:40.837Z,52.14
2023-04-19T06:43:09.273Z,52.09
2023-04-19T06:45:37.683Z,52.09
2023-04-19T06:48:06.928Z,52.30
2023-04-19T06:50:36.667Z,52.24
2023-04-19T06:53:05.820Z,52.32
2023-04-19T06:55:34.338Z,52.45
2023-04-19T06:58:02.724Z,52.34
2023-04-19T07:00:31.277Z,52.50
2023-04-19T07:03:01.533Z,52.52
2023-04-19T07:05:31.353Z,52.59
2023-04-19T07:08:01.097Z,52.96
2023-04-19T07:10:29.526Z,52.76
2023-04-19T07:12:57.876Z,52.98
2023-04-19T07:15:26.272Z,53.02
2023-04-19T07:17:54.681Z,52.96
2023-04-19T07:20:23.405Z,53.37
2023-04-19T07:22:51.763Z,53.36
2023-04-19T07:25:21.614Z,53.45
2023-04-19T07:27:49.992Z,53.39
2023-04-19T07:30:18.324Z,53.34
2023-04-19T07:32:46.978Z,53.23
2023-04-19T07:35:15.575Z,53.39
2023-04-19T07:37:43.962Z,53.42
2023-04-19T07:40:13.889Z,53.78
2023-04-19T07:42:45.087Z,53.69
2023-04-19T07:45:14.634Z,53.77
2023-04-19T07:47:43.385Z,53.65
2023-04-19T07:50:12.696Z,53.77
2023-04-19T07:52:41.182Z,53.83
2023-04-19T07:55:10.678Z,53.66
2023-04-19T07:57:38.953Z,53.80
2023-04-19T08:00:11.033Z,53.97
2023-04-19T08:02:39.658Z,53.79
2023-04-19T08:05:09.265Z,53.95
2023-04-19T08:07:38.762Z,53.93
2023-04-19T08:10:09.214Z,54.05
2023-04-19T08:12:42.996Z,54.31
2023-04-19T08:17:57.594Z,54.54
2023-04-19T08:20:26.904Z,54.28
2023-04-19T08:22:55.733Z,54.41
2023-04-19T08:25:26.918Z,54.55
2023-04-19T08:27:55.320Z,54.64
2023-04-19T08:30:25.437Z,54.44
2023-04-19T08:32:56.346Z,54.37
2023-04-19T08:35:26.178Z,54.08
2023-04-19T08:37:54.592Z,53.49
2023-04-19T08:40:23.165Z,53.51
2023-04-19T08:42:51.808Z,53.26
2023-04-19T08:48:01.778Z,53.18
2023-04-19T08:50:38.415Z,52.66
2023-04-19T08:55:58.477Z,52.98
2023-04-19T08:58:46.659Z,53.27
2023-04-19T09:01:31.006Z,53.71
2023-04-19T09:04:26.304Z,53.96
2023-04-19T09:06:57.133Z,54.48
2023-04-19T09:11:59.385Z,55.55
2023-04-19T09:14:29.665Z,56.12
2023-04-19T09:17:15.758Z,56.44
2023-04-19T09:19:50.041Z,56.79
2023-04-19T09:22:19.218Z,57.22
2023-04-19T09:27:28.276Z,57.58
2023-04-19T09:29:57.331Z,57.88
2023-04-19T09:32:27.201Z,58.33
2023-04-19T09:34:59.804Z,58.49
2023-04-19T09:40:00.332Z,59.05
2023-04-19T09:48:04.177Z,59.32
2023-04-19T09:50:50.575Z,59.58
2023-04-19T09:53:24.667Z,59.58
2023-04-19T09:56:01.468Z,59.38
2023-04-19T10:01:14.261Z,59.28
2023-04-19T10:03:46.523Z,59.52
2023-04-19T10:08:51.975Z,58.90
2023-04-19T10:11:22.741Z,59.28
2023-04-19T10:13:53.889Z,58.90
2023-04-19T10:16:22.493Z,59.13
2023-04-19T10:18:52.458Z,59.05
2023-04-19T10:21:22.975Z,59.14
2023-04-19T10:23:52.131Z,59.16
2023-04-19T10:26:20.707Z,58.92
2023-04-19T10:28:49.732Z,59.15
2023-04-19T10:31:23.722Z,59.37
2023-04-19T10:33:52.688Z,59.27
2023-04-19T10:36:23.591Z,58.62
2023-04-19T10:38:53.714Z,58.62
2023-04-19T10:41:23.169Z,58.79
2023-04-19T10:44:12.860Z,58.40
2023-04-19T10:46:41.591Z,58.23
2023-04-19T10:49:13.642Z,58.50
2023-04-19T10:51:52.858Z,58.71
2023-04-19T10:54:32.569Z,58.43
2023-04-19T10:57:04.735Z,58.46
2023-04-19T10:59:34.721Z,58.66
2023-04-19T11:02:05.384Z,58.88
2023-04-19T11:05:03.419Z,59.43
2023-04-19T11:07:41.749Z,60.00
2023-04-19T11:10:12.618Z,60.16
2023-04-19T11:12:45.421Z,60.51
2023-04-19T11:15:14.029Z,60.27
2023-04-19T11:17:42.668Z,60.17
2023-04-19T11:20:14.609Z,60.42
2023-04-19T11:22:47.432Z,60.52
2023-04-19T11:25:19.060Z,60.20
2023-04-19T11:27:49.048Z,59.72
2023-04-19T11:30:21.553Z,59.10
2023-04-19T11:32:53.018Z,57.99
2023-04-19T11:35:24.610Z,58.07
2023-04-19T11:37:56.304Z,58.53
2023-04-19T11:40:27.130Z,58.32
2023-04-19T11:42:57.600Z,57.87
2023-04-19T11:45:31.668Z,57.97
2023-04-19T11:48:02.343Z,58.14
2023-04-19T11:50:39.631Z,56.60
2023-04-19T11:53:18.270Z,56.57
2023-04-19T11:55:48.272Z,56.82
2023-04-19T11:58:33.051Z,56.11
2023-04-19T12:01:08.889Z,55.32
2023-04-19T12:03:43.441Z,54.27
2023-04-19T12:06:14.628Z,53.19
2023-04-19T12:08:48.452Z,52.79
2023-04-19T12:11:19.035Z,52.17
2023-04-19T12:13:47.513Z,51.07
2023-04-19T12:16:16.299Z,50.50
2023-04-19T12:18:49.094Z,50.33
2023-04-19T12:21:28.785Z,49.28
2023-04-19T12:24:00.344Z,48.95
2023-04-19T12:26:30.541Z,47.91
2023-04-19T12:29:00.333Z,48.00
2023-04-19T12:31:29.078Z,47.46
2023-04-19T12:33:57.509Z,47.61
2023-04-19T12:36:26.820Z,47.28
2023-04-19T12:38:55.285Z,46.82
2023-04-19T12:41:25.092Z,47.16
2023-04-19T12:43:53.467Z,47.45
2023-04-19T12:46:22.067Z,48.02
2023-04-19T12:48:50.478Z,48.21
2023-04-19T12:51:18.897Z,47.97
2023-04-19T12:53:50.264Z,48.15
2023-04-19T12:56:19.655Z,47.94
2023-04-19T12:58:49.521Z,48.02
2023-04-19T13:01:18.201Z,48.01
2023-04-19T13:03:47.173Z,47.89
2023-04-19T13:06:16.956Z,47.75
2023-04-19T13:08:47.720Z,47.76
2023-04-19T13:11:17.876Z,47.91
2023-04-19T13:13:46.323Z,46.96
2023-04-19T13:16:16.143Z,47.46
2023-04-19T13:18:44.588Z,46.60
2023-04-19T13:21:13.025Z,45.95
2023-04-19T13:23:41.477Z,46.44
2023-04-19T13:26:09.866Z,46.84
2023-04-19T13:28:38.461Z,45.42
2023-04-19T13:31:07.136Z,44.59
2023-04-19T13:33:36.865Z,44.76
2023-04-19T13:36:06.148Z,45.21
2023-04-19T13:38:34.560Z,45.41
2023-04-19T13:41:04.792Z,44.88
2023-04-19T13:43:33.270Z,45.31
2023-04-19T13:46:01.799Z,44.43
2023-04-19T13:48:30.255Z,43.96
2023-04-19T13:51:00.731Z,43.64
2023-04-19T13:53:29.961Z,44.13
2023-04-19T13:55:58.758Z,43.99
2023-04-19T13:58:27.290Z,43.33
2023-04-19T14:00:55.890Z,42.21
2023-04-19T14:03:25.360Z,41.61
2023-04-19T14:05:53.891Z,41.58
2023-04-19T14:08:23.669Z,42.07
2023-04-19T14:10:52.459Z,42.09
2023-04-19T14:13:20.925Z,41.35
2023-04-19T14:15:49.319Z,40.65
2023-04-19T14:18:17.767Z,39.91
2023-04-19T14:20:46.144Z,40.01
2023-04-19T14:23:14.650Z,39.47
2023-04-19T14:25:44.448Z,39.13
2023-04-19T14:28:14.914Z,38.09
2023-04-19T14:30:43.294Z,38.33
2023-04-19T14:33:12.123Z,37.34
2023-04-19T14:35:42.077Z,37.56
2023-04-19T14:38:10.650Z,37.35
2023-04-19T14:40:39.009Z,37.44
2023-04-19T14:43:08.783Z,38.08
2023-04-19T14:45:37.252Z,38.34
2023-04-19T14:48:06.382Z,38.66
2023-04-19T14:50:34.882Z,39.12
2023-04-19T14:53:03.348Z,39.18
2023-04-19T14:55:31.865Z,39.04
2023-04-19T14:58:00.281Z,38.62
2023-04-19T15:00:30.579Z,38.30
2023-04-19T15:02:59.178Z,37.59
2023-04-19T15:05:28.621Z,37.94
2023-04-19T15:07:57.087Z,37.86
2023-04-19T15:10:25.616Z,37.54
2023-04-19T15:12:53.998Z,37.58
2023-04-19T15:15:23.353Z,37.47
2023-04-19T15:17:53.111Z,37.64
2023-04-19T15:20:21.876Z,37.44
2023-04-19T15:22:50.282Z,37.33
2023-04-19T15:25:19.712Z,38.09
2023-04-19T15:27:48.102Z,38.09
2023-04-19T15:30:16.694Z,37.83
2023-04-19T15:32:45.156Z,37.56
2023-04-19T15:35:14.927Z,36.82
2023-04-19T15:37:43.910Z,36.44
2023-04-19T15:40:14.488Z,37.33
2023-04-19T15:42:42.921Z,37.68
2023-04-19T15:45:12.250Z,36.98
2023-04-19T15:47:40.700Z,37.05
2023-04-19T15:50:10.374Z,37.39
2023-04-19T15:52:40.144Z,37.30
2023-04-19T15:55:09.609Z,35.93
2023-04-19T15:57:37.928Z,34.98
2023-04-19T16:00:09.875Z,35.33
2023-04-19T16:02:38.483Z,35.35
2023-04-19T16:05:08.222Z,35.71
2023-04-19T16:07:36.618Z,35.79
2023-04-19T16:10:08.195Z,35.84
2023-04-19T16:12:36.560Z,36.50
2023-04-19T16:15:05.946Z,36.44
2023-04-19T16:17:34.599Z,36.42
2023-04-19T16:20:04.675Z,36.78
2023-04-19T16:22:33.073Z,37.00
2023-04-19T16:25:01.507Z,37.41
2023-04-19T16:27:31.367Z,37.63
2023-04-19T16:29:59.907Z,37.75
2023-04-19T16:32:28.494Z,37.95
2023-04-19T16:34:57.253Z,37.87
2023-04-19T16:37:25.738Z,37.88
2023-04-19T16:39:54.127Z,37.97
2023-04-19T16:42:22.581Z,38.31
2023-04-19T16:44:52.381Z,38.26
2023-04-19T16:47:21.912Z,38.84
2023-04-19T16:49:50.627Z,38.79
2023-04-19T16:52:19.188Z,39.14
2023-04-19T16:54:47.568Z,39.23
2023-04-19T16:57:16.242Z,39.36
2023-04-19T16:59:44.656Z,39.70
2023-04-19T17:02:14.873Z,39.67
2023-04-19T17:04:43.582Z,39.78
2023-04-19T17:07:12.491Z,40.02
2023-04-19T17:09:41.145Z,40.26
2023-04-19T17:12:10.028Z,40.47
2023-04-19T17:14:40.645Z,40.97
2023-04-19T17:17:10.822Z,40.86
2023-04-19T17:19:41.048Z,41.02
2023-04-19T17:22:09.646Z,41.21
2023-04-19T17:24:39.620Z,41.45
2023-04-19T17:27:11.819Z,41.85
2023-04-19T17:29:40.493Z,41.97
2023-04-19T17:32:16.732Z,42.06
2023-04-19T17:34:46.795Z,42.48
2023-04-19T17:37:17.836Z,42.67
2023-04-19T17:39:46.366Z,42.90
2023-04-19T17:42:21.913Z,43.12
2023-04-19T17:44:52.503Z,43.53
2023-04-19T17:47:21.719Z,43.43
2023-04-19T17:49:52.054Z,43.66
2023-04-19T17:52:21.250Z,43.95
2023-04-19T17:54:50.853Z,43.88
2023-04-19T17:57:22.823Z,43.96
2023-04-19T17:59:52.396Z,44.00
2023-04-19T18:02:22.809Z,44.02
2023-04-19T18:04:53.955Z,44.19
2023-04-19T18:07:23.549Z,44.26
2023-04-19T18:09:52.684Z,44.42
2023-04-19T18:12:21.778Z,44.53
2023-04-19T18:14:51.767Z,44.54
2023-04-19T18:17:20.897Z,44.86
2023-04-19T18:19:51.709Z,45.00
2023-04-19T18:22:21.928Z,45.11
2023-04-19T18:24:53.986Z,44.99
2023-04-19T18:27:23.312Z,45.16
2023-04-19T18:29:54.506Z,45.25
2023-04-19T18:32:29.270Z,45.24
2023-04-19T18:35:02.703Z,45.37
2023-04-19T18:37:33.402Z,45.38
2023-04-19T18:40:02.389Z,45.56
2023-04-19T18:42:32.803Z,45.38
2023-04-19T18:45:04.719Z,45.65
2023-04-19T18:47:35.410Z,45.69
2023-04-19T18:50:07.617Z,45.85
2023-04-19T18:52:40.858Z,45.88
2023-04-19T18:55:12.638Z,45.84
2023-04-19T18:57:43.060Z,45.90
2023-04-19T19:00:14.956Z,46.15
2023-04-19T19:02:44.636Z,45.96
2023-04-19T19:05:16.664Z,46.16
2023-04-19T19:07:49.556Z,45.98
2023-04-19T19:10:22.324Z,46.03
2023-04-19T19:12:55.708Z,46.15
2023-04-19T19:15:27.627Z,46.24
2023-04-19T19:17:58.239Z,46.21
2023-04-19T19:20:28.285Z,46.12
2023-04-19T19:22:59.335Z,46.51
2023-04-19T19:25:29.960Z,46.20
2023-04-19T19:30:51.700Z,46.17
2023-04-19T19:33:21.879Z,46.07
2023-04-19T19:35:52.140Z,46.37
2023-04-19T19:38:24.433Z,46.48
2023-04-19T19:41:30.921Z,46.48
2023-04-19T19:43:46.325Z,46.33
2023-04-19T19:46:16.300Z,46.15
2023-04-19T19:51:41.735Z,46.56
2023-04-19T19:54:11.645Z,46.64
2023-04-19T19:56:55.651Z,46.58
2023-04-19T19:59:34.903Z,46.71
2023-04-19T20:02:05.066Z,46.70
2023-04-19T20:04:37.213Z,46.70
2023-04-19T20:07:32.830Z,46.78
2023-04-19T20:09:57.859Z,46.84
2023-04-19T20:12:30.300Z,46.88
2023-04-19T20:14:59.327Z,46.91
2023-04-19T20:17:30.320Z,47.06
2023-04-19T20:20:00.553Z,47.04
2023-04-19T20:22:29.982Z,47.17
2023-04-19T20:25:00.939Z,47.19
2023-04-19T20:27:30.670Z,47.26
2023-04-19T20:30:01.564Z,47.43
2023-04-19T20:32:32.390Z,47.37
2023-04-19T20:35:03.033Z,47.37
2023-04-19T20:37:36.172Z,47.44
2023-04-19T20:40:11.506Z,47.49
2023-04-19T20:42:41.318Z,47.49
2023-04-19T20:45:12.496Z,47.55
2023-04-19T20:47:42.860Z,47.63
2023-04-19T20:50:14.811Z,47.56
2023-04-19T20:52:44.010Z,47.62
2023-04-19T20:55:15.448Z,47.77
2023-04-19T20:57:44.403Z,47.69
2023-04-19T21:00:17.177Z,47.72
2023-04-19T21:02:46.150Z,47.84
2023-04-19T21:05:14.961Z,47.80
2023-04-19T21:07:43.798Z,47.74
2023-04-19T21:10:13.780Z,47.82
2023-04-19T21:12:42.141Z,47.72
2023-04-19T21:15:12.189Z,47.81
2023-04-19T21:17:40.925Z,47.80
2023-04-19T21:20:14.206Z,47.71
2023-04-19T21:22:43.806Z,47.76
2023-04-19T21:25:14.422Z,47.65
2023-04-19T21:27:43.536Z,47.72
2023-04-19T21:30:13.713Z,47.75
2023-04-19T21:32:42.176Z,47.75
2023-04-19T21:35:11.454Z,47.54
2023-04-19T21:37:39.911Z,47.83
2023-04-19T21:40:09.786Z,47.84
2023-04-19T21:42:39.696Z,47.60
2023-04-19T21:45:10.057Z,47.70
2023-04-19T21:47:38.533Z,47.77
2023-04-19T21:50:09.161Z,47.79
2023-04-19T21:52:37.625Z,47.76
2023-04-19T21:55:07.892Z,47.73
2023-04-19T21:57:38.354Z,47.60
2023-04-19T22:00:10.363Z,47.58
2023-04-19T22:02:38.998Z,47.55
2023-04-19T22:05:08.416Z,47.59
2023-04-19T22:07:38.612Z,47.62
2023-04-19T22:10:09.483Z,47.58
2023-04-19T22:12:48.021Z,47.54
2023-04-19T22:15:26.005Z,47.58
2023-04-19T22:17:54.578Z,47.61
2023-04-19T22:20:23.809Z,47.51
2023-04-19T22:22:52.383Z,47.56
2023-04-19T22:25:21.254Z,47.63
2023-04-19T22:27:49.639Z,47.64
2023-04-19T22:30:18.086Z,47.59
2023-04-19T22:32:47.889Z,47.70
2023-04-19T22:35:16.879Z,47.68
2023-04-19T22:37:45.357Z,47.69
2023-04-19T22:40:14.677Z,47.74
2023-04-19T22:42:43.171Z,47.78
2023-04-19T22:45:12.501Z,47.83
2023-04-19T22:47:40.984Z,47.71
2023-04-19T22:50:12.091Z,47.80
2023-04-19T22:52:40.986Z,47.88
2023-04-19T22:55:10.649Z,47.82
2023-04-19T22:57:39.074Z,47.86
2023-04-19T23:00:10.673Z,47.78
2023-04-19T23:02:40.049Z,47.95
2023-04-19T23:05:11.372Z,48.00
2023-04-19T23:07:42.030Z,48.06
2023-04-19T23:10:12.314Z,48.15
2023-04-19T23:12:40.824Z,48.00
2023-04-19T23:15:11.205Z,48.17
2023-04-19T23:17:40.543Z,48.36
2023-04-19T23:20:12.077Z,48.25
2023-04-19T23:22:40.812Z,48.39
2023-04-19T23:25:10.979Z,48.37
2023-04-19T23:27:39.387Z,48.40
2023-04-19T23:30:09.620Z,48.38
2023-04-19T23:32:38.195Z,48.42
2023-04-19T23:35:07.884Z,48.39
2023-04-19T23:37:38.093Z,48.27
2023-04-19T23:40:09.117Z,48.26
2023-04-19T23:42:38.975Z,48.16
2023-04-19T23:45:09.168Z,48.16
2023-04-19T23:47:37.647Z,47.94
2023-04-19T23:50:07.244Z,48.25
2023-04-19T23:52:37.005Z,48.17
2023-04-19T23:55:06.874Z,48.18
2023-04-19T23:57:35.926Z,48.14
